sensor_id;sensor_type;location;lat;lon;timestamp;temperature;humidity
23729;DHT22;12045;60.214;24.724;2023-07-02T00:00:21;17.40;99.90
23729;DHT22;12045;60.214;24.724;2023-07-02T00:02:49;17.50;99.90
23729;DHT22;12045;60.214;24.724;2023-07-02T00:05:17;17.40;99.90
23729;DHT22;12045;60.214;24.724;2023-07-02T00:07:45;17.40;99.90
23729;DHT22;12045;60.214;24.724;2023-07-02T00:10:13;17.40;99.90
23729;DHT22;12045;60.214;24.724;2023-07-02T00:12:40;17.40;99.90
23729;DHT22;12045;60.214;24.724;2023-07-02T00:15:08;17.40;99.90
23729;DHT22;12045;60.214;24.724;2023-07-02T00:17:37;17.30;99.90
23729;DHT22;12045;60.214;24.724;2023-07-02T00:20:08;17.30;99.90
23729;DHT22;12045;60.214;24.724;2023-07-02T00:22:42;17.30;99.90
23729;DHT22;12045;60.214;24.724;2023-07-02T00:25:13;17.40;99.90
23729;DHT22;12045;60.214;24.724;2023-07-02T00:27:41;17.30;99.90
23729;DHT22;12045;60.214;24.724;2023-07-02T00:30:10;17.20;99.90
23729;DHT22;12045;60.214;24.724;2023-07-02T00:32:38;17.40;99.90
23729;DHT22;12045;60.214;24.724;2023-07-02T00:35:08;17.20;99.90
23729;DHT22;12045;60.214;24.724;2023-07-02T00:37:36;17.20;99.90
23729;DHT22;12045;60.214;24.724;2023-07-02T00:40:04;17.10;99.90
23729;DHT22;12045;60.214;24.724;2023-07-02T00:42:32;17.10;99.90
23729;DHT22;12045;60.214;24.724;2023-07-02T00:44:59;17.00;99.90
23729;DHT22;12045;60.214;24.724;2023-07-02T00:47:34;17.10;99.90
23729;DHT22;12045;60.214;24.724;2023-07-02T00:50:02;17.00;99.90
23729;DHT22;12045;60.214;24.724;2023-07-02T00:52:30;17.10;99.90
23729;DHT22;12045;60.214;24.724;2023-07-02T00:54:58;17.10;99.90
23729;DHT22;12045;60.214;24.724;2023-07-02T00:57:26;17.10;99.90
23729;DHT22;12045;60.214;24.724;2023-07-02T00:59:58;17.20;99.90
23729;DHT22;12045;60.214;24.724;2023-07-02T01:02:28;17.10;99.90
23729;DHT22;12045;60.214;24.724;2023-07-02T01:04:57;17.00;99.90
23729;DHT22;12045;60.214;24.724;2023-07-02T01:07:28;17.00;99.90
23729;DHT22;12045;60.214;24.724;2023-07-02T01:09:55;17.10;99.90
23729;DHT22;12045;60.214;24.724;2023-07-02T01:12:25;17.10;99.90
23729;DHT22;12045;60.214;24.724;2023-07-02T01:14:56;17.10;99.90
23729;DHT22;12045;60.214;24.724;2023-07-02T01:17:27;17.10;99.90
23729;DHT22;12045;60.214;24.724;2023-07-02T01:19:57;17.10;99.90
23729;DHT22;12045;60.214;24.724;2023-07-02T01:22:28;17.10;99.90
23729;DHT22;12045;60.214;24.724;2023-07-02T01:24:56;17.20;99.90
23729;DHT22;12045;60.214;24.724;2023-07-02T01:27:29;17.20;99.90
23729;DHT22;12045;60.214;24.724;2023-07-02T01:29:58;17.20;99.90
23729;DHT22;12045;60.214;24.724;2023-07-02T01:32:25;17.20;99.90
23729;DHT22;12045;60.214;24.724;2023-07-02T01:34:53;17.20;99.90
23729;DHT22;12045;60.214;24.724;2023-07-02T01:37:21;17.20;99.90
23729;DHT22;12045;60.214;24.724;2023-07-02T01:39:49;17.20;99.90
23729;DHT22;12045;60.214;24.724;2023-07-02T01:42:18;17.10;99.90
23729;DHT22;12045;60.214;24.724;2023-07-02T01:44:49;17.20;99.90
23729;DHT22;12045;60.214;24.724;2023-07-02T01:47:18;17.20;99.90
23729;DHT22;12045;60.214;24.724;2023-07-02T01:49:47;17.20;99.90
23729;DHT22;12045;60.214;24.724;2023-07-02T01:52:15;17.20;99.90
23729;DHT22;12045;60.214;24.724;2023-07-02T01:54:45;17.20;99.90
23729;DHT22;12045;60.214;24.724;2023-07-02T01:57:13;17.10;99.90
23729;DHT22;12045;60.214;24.724;2023-07-02T01:59:41;17.10;99.90
23729;DHT22;12045;60.214;24.724;2023-07-02T02:02:10;17.10;99.90
23729;DHT22;12045;60.214;24.724;2023-07-02T02:04:37;17.10;99.90
23729;DHT22;12045;60.214;24.724;2023-07-02T02:07:05;17.10;99.90
23729;DHT22;12045;60.214;24.724;2023-07-02T02:09:34;17.20;99.90
23729;DHT22;12045;60.214;24.724;2023-07-02T02:12:02;17.20;99.90
23729;DHT22;12045;60.214;24.724;2023-07-02T02:14:30;17.20;99.90
23729;DHT22;12045;60.214;24.724;2023-07-02T02:16:59;17.20;99.90
23729;DHT22;12045;60.214;24.724;2023-07-02T02:19:28;17.20;99.90
23729;DHT22;12045;60.214;24.724;2023-07-02T02:21:55;17.30;99.90
23729;DHT22;12045;60.214;24.724;2023-07-02T02:24:24;17.30;99.90
23729;DHT22;12045;60.214;24.724;2023-07-02T02:26:53;17.30;99.90
23729;DHT22;12045;60.214;24.724;2023-07-02T02:29:20;17.30;99.90
23729;DHT22;12045;60.214;24.724;2023-07-02T02:31:48;17.30;99.90
23729;DHT22;12045;60.214;24.724;2023-07-02T02:34:16;17.30;99.90
23729;DHT22;12045;60.214;24.724;2023-07-02T02:36:43;17.30;99.90
23729;DHT22;12045;60.214;24.724;2023-07-02T02:39:11;17.30;99.90
23729;DHT22;12045;60.214;24.724;2023-07-02T02:41:41;17.30;99.90
23729;DHT22;12045;60.214;24.724;2023-07-02T02:44:08;17.50;99.90
23729;DHT22;12045;60.214;24.724;2023-07-02T02:46:36;17.30;99.90
23729;DHT22;12045;60.214;24.724;2023-07-02T02:49:03;17.30;99.90
23729;DHT22;12045;60.214;24.724;2023-07-02T02:51:31;17.30;99.90
23729;DHT22;12045;60.214;24.724;2023-07-02T02:53:58;17.30;99.90
23729;DHT22;12045;60.214;24.724;2023-07-02T02:56:26;17.40;99.90
23729;DHT22;12045;60.214;24.724;2023-07-02T02:58:53;17.40;99.90
23729;DHT22;12045;60.214;24.724;2023-07-02T03:01:21;17.30;99.90
23729;DHT22;12045;60.214;24.724;2023-07-02T03:03:50;17.30;99.90
23729;DHT22;12045;60.214;24.724;2023-07-02T03:06:19;17.30;99.90
23729;DHT22;12045;60.214;24.724;2023-07-02T03:08:46;17.40;99.90
23729;DHT22;12045;60.214;24.724;2023-07-02T03:11:14;17.80;99.90
23729;DHT22;12045;60.214;24.724;2023-07-02T03:13:41;17.60;99.90
23729;DHT22;12045;60.214;24.724;2023-07-02T03:16:09;17.60;99.90
23729;DHT22;12045;60.214;24.724;2023-07-02T03:18:37;17.70;99.90
23729;DHT22;12045;60.214;24.724;2023-07-02T03:21:05;17.70;99.90
23729;DHT22;12045;60.214;24.724;2023-07-02T03:23:33;17.80;99.90
23729;DHT22;12045;60.214;24.724;2023-07-02T03:26:01;18.00;99.90
23729;DHT22;12045;60.214;24.724;2023-07-02T03:28:29;17.80;99.90
23729;DHT22;12045;60.214;24.724;2023-07-02T03:30:57;17.70;99.90
23729;DHT22;12045;60.214;24.724;2023-07-02T03:33:26;17.70;99.90
23729;DHT22;12045;60.214;24.724;2023-07-02T03:35:54;17.70;99.90
23729;DHT22;12045;60.214;24.724;2023-07-02T03:38:21;17.70;99.90
23729;DHT22;12045;60.214;24.724;2023-07-02T03:40:49;17.70;99.90
23729;DHT22;12045;60.214;24.724;2023-07-02T03:43:17;17.80;99.90
23729;DHT22;12045;60.214;24.724;2023-07-02T03:45:45;17.90;99.90
23729;DHT22;12045;60.214;24.724;2023-07-02T03:48:14;17.90;99.90
23729;DHT22;12045;60.214;24.724;2023-07-02T03:50:42;17.90;99.90
23729;DHT22;12045;60.214;24.724;2023-07-02T03:53:09;18.00;99.90
23729;DHT22;12045;60.214;24.724;2023-07-02T03:55:37;18.00;99.90
23729;DHT22;12045;60.214;24.724;2023-07-02T03:58:06;18.10;99.90
23729;DHT22;12045;60.214;24.724;2023-07-02T04:00:34;18.10;99.90
23729;DHT22;12045;60.214;24.724;2023-07-02T04:03:01;18.10;99.90
23729;DHT22;12045;60.214;24.724;2023-07-02T04:05:30;18.10;99.90
23729;DHT22;12045;60.214;24.724;2023-07-02T04:08:01;18.10;99.90
23729;DHT22;12045;60.214;24.724;2023-07-02T04:10:30;18.00;99.90
23729;DHT22;12045;60.214;24.724;2023-07-02T04:12:59;17.90;99.90
23729;DHT22;12045;60.214;24.724;2023-07-02T04:15:27;17.80;99.90
23729;DHT22;12045;60.214;24.724;2023-07-02T04:17:54;17.90;99.90
23729;DHT22;12045;60.214;24.724;2023-07-02T04:20:22;18.00;99.90
23729;DHT22;12045;60.214;24.724;2023-07-02T04:22:50;18.10;99.90
23729;DHT22;12045;60.214;24.724;2023-07-02T04:25:20;18.20;99.90
23729;DHT22;12045;60.214;24.724;2023-07-02T04:28:08;18.30;99.90
23729;DHT22;12045;60.214;24.724;2023-07-02T04:30:37;18.30;99.90
23729;DHT22;12045;60.214;24.724;2023-07-02T04:33:04;18.40;99.90
23729;DHT22;12045;60.214;24.724;2023-07-02T04:35:35;18.40;99.90
23729;DHT22;12045;60.214;24.724;2023-07-02T04:38:05;18.50;99.90
23729;DHT22;12045;60.214;24.724;2023-07-02T04:40:33;18.60;99.90
23729;DHT22;12045;60.214;24.724;2023-07-02T04:43:02;18.50;99.90
23729;DHT22;12045;60.214;24.724;2023-07-02T04:45:31;18.50;99.90
23729;DHT22;12045;60.214;24.724;2023-07-02T04:48:04;18.40;99.90
23729;DHT22;12045;60.214;24.724;2023-07-02T04:50:31;18.40;99.90
23729;DHT22;12045;60.214;24.724;2023-07-02T04:53:01;18.50;99.90
23729;DHT22;12045;60.214;24.724;2023-07-02T04:55:29;18.40;99.90
23729;DHT22;12045;60.214;24.724;2023-07-02T04:57:57;18.40;99.90
23729;DHT22;12045;60.214;24.724;2023-07-02T05:00:25;18.50;99.90
23729;DHT22;12045;60.214;24.724;2023-07-02T05:02:54;18.50;99.90
23729;DHT22;12045;60.214;24.724;2023-07-02T05:05:22;18.50;99.90
23729;DHT22;12045;60.214;24.724;2023-07-02T05:07:54;18.50;99.90
23729;DHT22;12045;60.214;24.724;2023-07-02T05:10:21;18.60;99.90
23729;DHT22;12045;60.214;24.724;2023-07-02T05:12:49;18.60;99.90
23729;DHT22;12045;60.214;24.724;2023-07-02T05:15:17;18.60;99.90
23729;DHT22;12045;60.214;24.724;2023-07-02T05:17:44;18.70;99.90
23729;DHT22;12045;60.214;24.724;2023-07-02T05:20:12;18.70;99.90
23729;DHT22;12045;60.214;24.724;2023-07-02T05:22:41;18.70;99.90
23729;DHT22;12045;60.214;24.724;2023-07-02T05:25:10;18.70;99.90
23729;DHT22;12045;60.214;24.724;2023-07-02T05:27:38;18.70;99.90
23729;DHT22;12045;60.214;24.724;2023-07-02T05:30:07;18.70;99.90
23729;DHT22;12045;60.214;24.724;2023-07-02T05:32:37;18.80;99.90
23729;DHT22;12045;60.214;24.724;2023-07-02T05:35:07;19.00;99.90
23729;DHT22;12045;60.214;24.724;2023-07-02T05:37:39;19.00;99.90
23729;DHT22;12045;60.214;24.724;2023-07-02T05:40:08;19.10;99.90
23729;DHT22;12045;60.214;24.724;2023-07-02T05:42:41;19.20;99.90
23729;DHT22;12045;60.214;24.724;2023-07-02T05:45:11;19.20;99.90
23729;DHT22;12045;60.214;24.724;2023-07-02T05:47:44;19.40;99.90
23729;DHT22;12045;60.214;24.724;2023-07-02T05:50:13;19.30;99.90
23729;DHT22;12045;60.214;24.724;2023-07-02T05:52:44;19.30;99.90
23729;DHT22;12045;60.214;24.724;2023-07-02T05:55:13;19.50;99.90
23729;DHT22;12045;60.214;24.724;2023-07-02T05:57:43;19.40;99.90
23729;DHT22;12045;60.214;24.724;2023-07-02T06:00:14;19.40;99.90
23729;DHT22;12045;60.214;24.724;2023-07-02T06:02:46;19.50;99.90
23729;DHT22;12045;60.214;24.724;2023-07-02T06:05:15;19.70;99.90
23729;DHT22;12045;60.214;24.724;2023-07-02T06:07:47;19.60;99.90
23729;DHT22;12045;60.214;24.724;2023-07-02T06:10:29;19.90;99.90
23729;DHT22;12045;60.214;24.724;2023-07-02T06:13:01;20.00;99.90
23729;DHT22;12045;60.214;24.724;2023-07-02T06:15:35;20.00;99.90
23729;DHT22;12045;60.214;24.724;2023-07-02T06:18:03;20.00;99.90
23729;DHT22;12045;60.214;24.724;2023-07-02T06:20:32;19.80;99.90
23729;DHT22;12045;60.214;24.724;2023-07-02T06:23:01;19.80;99.90
23729;DHT22;12045;60.214;24.724;2023-07-02T06:25:30;19.90;99.90
23729;DHT22;12045;60.214;24.724;2023-07-02T06:27:58;20.00;99.90
23729;DHT22;12045;60.214;24.724;2023-07-02T06:30:28;20.00;99.90
23729;DHT22;12045;60.214;24.724;2023-07-02T06:32:58;20.10;99.90
23729;DHT22;12045;60.214;24.724;2023-07-02T06:35:26;20.20;99.90
23729;DHT22;12045;60.214;24.724;2023-07-02T06:37:56;20.20;99.90
23729;DHT22;12045;60.214;24.724;2023-07-02T06:40:27;20.30;99.90
23729;DHT22;12045;60.214;24.724;2023-07-02T06:43:00;20.30;99.90
23729;DHT22;12045;60.214;24.724;2023-07-02T06:45:36;20.30;99.90
23729;DHT22;12045;60.214;24.724;2023-07-02T06:48:16;20.30;99.90
23729;DHT22;12045;60.214;24.724;2023-07-02T06:50:46;20.40;99.90
23729;DHT22;12045;60.214;24.724;2023-07-02T06:53:15;20.30;99.90
23729;DHT22;12045;60.214;24.724;2023-07-02T06:55:43;20.10;99.90
23729;DHT22;12045;60.214;24.724;2023-07-02T06:58:13;20.00;99.90
23729;DHT22;12045;60.214;24.724;2023-07-02T07:00:42;19.90;99.90
23729;DHT22;12045;60.214;24.724;2023-07-02T07:03:11;20.00;99.90
23729;DHT22;12045;60.214;24.724;2023-07-02T07:05:39;20.00;99.90
23729;DHT22;12045;60.214;24.724;2023-07-02T07:08:07;19.80;99.90
23729;DHT22;12045;60.214;24.724;2023-07-02T07:10:35;19.80;99.90
23729;DHT22;12045;60.214;24.724;2023-07-02T07:13:03;19.70;99.90
23729;DHT22;12045;60.214;24.724;2023-07-02T07:15:33;19.50;99.90
23729;DHT22;12045;60.214;24.724;2023-07-02T07:18:02;19.50;99.90
23729;DHT22;12045;60.214;24.724;2023-07-02T07:20:31;19.50;99.90
23729;DHT22;12045;60.214;24.724;2023-07-02T07:23:01;19.70;99.90
23729;DHT22;12045;60.214;24.724;2023-07-02T07:25:29;19.80;99.90
23729;DHT22;12045;60.214;24.724;2023-07-02T07:27:57;19.90;99.90
23729;DHT22;12045;60.214;24.724;2023-07-02T07:30:25;20.00;99.90
23729;DHT22;12045;60.214;24.724;2023-07-02T07:32:53;20.20;99.90
23729;DHT22;12045;60.214;24.724;2023-07-02T07:35:23;20.30;99.90
23729;DHT22;12045;60.214;24.724;2023-07-02T07:37:50;20.40;99.90
23729;DHT22;12045;60.214;24.724;2023-07-02T07:40:18;20.30;99.90
23729;DHT22;12045;60.214;24.724;2023-07-02T07:42:45;20.20;99.90
23729;DHT22;12045;60.214;24.724;2023-07-02T07:45:13;20.20;99.90
23729;DHT22;12045;60.214;24.724;2023-07-02T07:47:41;20.20;99.90
23729;DHT22;12045;60.214;24.724;2023-07-02T07:50:10;20.20;99.90
23729;DHT22;12045;60.214;24.724;2023-07-02T07:52:40;20.20;99.90
23729;DHT22;12045;60.214;24.724;2023-07-02T07:55:09;20.10;99.90
23729;DHT22;12045;60.214;24.724;2023-07-02T07:57:37;20.30;99.90
23729;DHT22;12045;60.214;24.724;2023-07-02T08:00:06;20.30;99.90
23729;DHT22;12045;60.214;24.724;2023-07-02T08:02:39;20.50;99.90
23729;DHT22;12045;60.214;24.724;2023-07-02T08:05:07;20.50;99.90
23729;DHT22;12045;60.214;24.724;2023-07-02T08:07:35;20.40;99.90
23729;DHT22;12045;60.214;24.724;2023-07-02T08:10:03;20.40;99.90
23729;DHT22;12045;60.214;24.724;2023-07-02T08:12:30;20.30;99.90
23729;DHT22;12045;60.214;24.724;2023-07-02T08:14:58;20.30;99.90
23729;DHT22;12045;60.214;24.724;2023-07-02T08:17:26;20.20;99.90
23729;DHT22;12045;60.214;24.724;2023-07-02T08:19:53;20.20;99.90
23729;DHT22;12045;60.214;24.724;2023-07-02T08:22:22;20.20;99.90
23729;DHT22;12045;60.214;24.724;2023-07-02T08:24:51;20.20;99.90
23729;DHT22;12045;60.214;24.724;2023-07-02T08:27:19;20.20;99.90
23729;DHT22;12045;60.214;24.724;2023-07-02T08:29:47;20.30;99.90
23729;DHT22;12045;60.214;24.724;2023-07-02T08:32:15;20.20;99.90
23729;DHT22;12045;60.214;24.724;2023-07-02T08:34:43;20.10;99.90
23729;DHT22;12045;60.214;24.724;2023-07-02T08:37:12;20.00;99.90
23729;DHT22;12045;60.214;24.724;2023-07-02T08:39:39;19.90;99.90
23729;DHT22;12045;60.214;24.724;2023-07-02T08:42:07;19.80;99.90
23729;DHT22;12045;60.214;24.724;2023-07-02T08:44:36;19.80;99.90
23729;DHT22;12045;60.214;24.724;2023-07-02T08:47:05;19.80;99.90
23729;DHT22;12045;60.214;24.724;2023-07-02T08:49:34;19.90;99.90
23729;DHT22;12045;60.214;24.724;2023-07-02T08:52:01;19.90;99.90
23729;DHT22;12045;60.214;24.724;2023-07-02T08:54:30;19.70;99.90
23729;DHT22;12045;60.214;24.724;2023-07-02T08:56:57;19.70;99.90
23729;DHT22;12045;60.214;24.724;2023-07-02T08:59:25;19.70;99.90
23729;DHT22;12045;60.214;24.724;2023-07-02T09:01:53;19.80;99.90
23729;DHT22;12045;60.214;24.724;2023-07-02T09:04:23;19.70;99.90
23729;DHT22;12045;60.214;24.724;2023-07-02T09:07:03;19.50;99.90
23729;DHT22;12045;60.214;24.724;2023-07-02T09:09:32;19.40;99.90
23729;DHT22;12045;60.214;24.724;2023-07-02T09:12:01;19.50;99.90
23729;DHT22;12045;60.214;24.724;2023-07-02T09:14:30;19.40;99.90
23729;DHT22;12045;60.214;24.724;2023-07-02T09:17:08;19.40;99.90
23729;DHT22;12045;60.214;24.724;2023-07-02T09:19:50;19.40;99.90
23729;DHT22;12045;60.214;24.724;2023-07-02T09:22:17;19.40;99.90
23729;DHT22;12045;60.214;24.724;2023-07-02T09:24:57;19.80;99.90
23729;DHT22;12045;60.214;24.724;2023-07-02T09:27:42;20.10;99.90
23729;DHT22;12045;60.214;24.724;2023-07-02T09:32:44;20.20;99.90
23729;DHT22;12045;60.214;24.724;2023-07-02T09:35:12;20.30;99.90
23729;DHT22;12045;60.214;24.724;2023-07-02T09:37:45;20.40;99.90
23729;DHT22;12045;60.214;24.724;2023-07-02T09:40:13;21.20;99.90
23729;DHT22;12045;60.214;24.724;2023-07-02T09:42:47;20.40;99.90
23729;DHT22;12045;60.214;24.724;2023-07-02T09:45:19;20.30;99.90
23729;DHT22;12045;60.214;24.724;2023-07-02T09:47:52;20.20;99.90
23729;DHT22;12045;60.214;24.724;2023-07-02T09:50:21;20.40;99.90
23729;DHT22;12045;60.214;24.724;2023-07-02T09:52:49;20.30;99.90
23729;DHT22;12045;60.214;24.724;2023-07-02T09:55:17;20.00;99.90
23729;DHT22;12045;60.214;24.724;2023-07-02T09:57:45;20.00;99.90
23729;DHT22;12045;60.214;24.724;2023-07-02T10:00:14;20.10;99.90
23729;DHT22;12045;60.214;24.724;2023-07-02T10:02:50;20.20;99.90
23729;DHT22;12045;60.214;24.724;2023-07-02T10:05:29;20.20;99.90
23729;DHT22;12045;60.214;24.724;2023-07-02T10:07:58;20.00;99.90
23729;DHT22;12045;60.214;24.724;2023-07-02T10:10:32;19.80;99.90
23729;DHT22;12045;60.214;24.724;2023-07-02T10:13:01;19.90;99.90
23729;DHT22;12045;60.214;24.724;2023-07-02T10:15:29;20.30;99.90
23729;DHT22;12045;60.214;24.724;2023-07-02T10:18:03;20.40;99.90
23729;DHT22;12045;60.214;24.724;2023-07-02T10:20:39;20.30;99.90
23729;DHT22;12045;60.214;24.724;2023-07-02T10:23:08;20.20;99.90
23729;DHT22;12045;60.214;24.724;2023-07-02T10:25:37;19.90;99.90
23729;DHT22;12045;60.214;24.724;2023-07-02T10:28:19;19.90;99.90
23729;DHT22;12045;60.214;24.724;2023-07-02T10:30:48;20.00;99.90
23729;DHT22;12045;60.214;24.724;2023-07-02T10:33:18;20.10;99.90
23729;DHT22;12045;60.214;24.724;2023-07-02T10:35:47;20.20;99.90
23729;DHT22;12045;60.214;24.724;2023-07-02T10:38:23;20.20;99.90
23729;DHT22;12045;60.214;24.724;2023-07-02T10:40:58;20.10;99.90
23729;DHT22;12045;60.214;24.724;2023-07-02T10:43:27;20.20;99.90
23729;DHT22;12045;60.214;24.724;2023-07-02T10:45:58;20.40;99.90
23729;DHT22;12045;60.214;24.724;2023-07-02T10:48:29;20.60;99.90
23729;DHT22;12045;60.214;24.724;2023-07-02T10:50:57;20.60;99.90
23729;DHT22;12045;60.214;24.724;2023-07-02T10:53:25;20.90;99.90
23729;DHT22;12045;60.214;24.724;2023-07-02T10:55:58;21.20;99.90
23729;DHT22;12045;60.214;24.724;2023-07-02T10:58:27;21.00;99.90
23729;DHT22;12045;60.214;24.724;2023-07-02T11:00:54;20.80;99.90
23729;DHT22;12045;60.214;24.724;2023-07-02T11:03:26;20.50;99.90
23729;DHT22;12045;60.214;24.724;2023-07-02T11:05:54;20.50;99.90
23729;DHT22;12045;60.214;24.724;2023-07-02T11:08:22;20.60;99.90
23729;DHT22;12045;60.214;24.724;2023-07-02T11:11:07;20.40;99.90
23729;DHT22;12045;60.214;24.724;2023-07-02T11:13:44;20.20;99.90
23729;DHT22;12045;60.214;24.724;2023-07-02T11:16:26;20.10;99.90
23729;DHT22;12045;60.214;24.724;2023-07-02T11:19:08;20.00;99.90
23729;DHT22;12045;60.214;24.724;2023-07-02T11:21:37;19.90;99.90
23729;DHT22;12045;60.214;24.724;2023-07-02T11:24:06;19.80;99.90
23729;DHT22;12045;60.214;24.724;2023-07-02T11:26:38;19.70;99.90
23729;DHT22;12045;60.214;24.724;2023-07-02T11:29:18;19.70;99.90
23729;DHT22;12045;60.214;24.724;2023-07-02T11:31:46;19.70;99.90
23729;DHT22;12045;60.214;24.724;2023-07-02T11:34:21;19.90;99.90
23729;DHT22;12045;60.214;24.724;2023-07-02T11:36:51;20.00;99.90
23729;DHT22;12045;60.214;24.724;2023-07-02T11:39:21;20.00;99.90
23729;DHT22;12045;60.214;24.724;2023-07-02T11:41:49;19.90;99.90
23729;DHT22;12045;60.214;24.724;2023-07-02T11:44:17;19.70;99.90
23729;DHT22;12045;60.214;24.724;2023-07-02T11:46:45;19.70;99.90
23729;DHT22;12045;60.214;24.724;2023-07-02T11:49:14;19.50;99.90
23729;DHT22;12045;60.214;24.724;2023-07-02T11:51:43;19.30;99.90
23729;DHT22;12045;60.214;24.724;2023-07-02T11:54:16;19.10;99.90
23729;DHT22;12045;60.214;24.724;2023-07-02T11:56:46;19.00;99.90
23729;DHT22;12045;60.214;24.724;2023-07-02T11:59:14;18.90;99.90
23729;DHT22;12045;60.214;24.724;2023-07-02T12:01:42;18.70;99.90
23729;DHT22;12045;60.214;24.724;2023-07-02T12:04:10;17.70;99.90
23729;DHT22;12045;60.214;24.724;2023-07-02T12:06:39;18.50;99.90
23729;DHT22;12045;60.214;24.724;2023-07-02T12:09:06;18.40;99.90
23729;DHT22;12045;60.214;24.724;2023-07-02T12:11:34;18.30;99.90
23729;DHT22;12045;60.214;24.724;2023-07-02T12:14:02;18.30;99.90
23729;DHT22;12045;60.214;24.724;2023-07-02T12:16:37;18.20;99.90
23729;DHT22;12045;60.214;24.724;2023-07-02T12:19:05;18.10;99.90
23729;DHT22;12045;60.214;24.724;2023-07-02T12:21:32;17.90;99.90
23729;DHT22;12045;60.214;24.724;2023-07-02T12:24:00;17.90;99.90
23729;DHT22;12045;60.214;24.724;2023-07-02T12:26:29;18.00;99.90
23729;DHT22;12045;60.214;24.724;2023-07-02T12:28:57;18.20;99.90
23729;DHT22;12045;60.214;24.724;2023-07-02T12:31:25;18.40;99.90
23729;DHT22;12045;60.214;24.724;2023-07-02T12:33:52;18.60;99.90
23729;DHT22;12045;60.214;24.724;2023-07-02T12:36:20;18.70;99.90
23729;DHT22;12045;60.214;24.724;2023-07-02T12:38:48;18.80;99.90
23729;DHT22;12045;60.214;24.724;2023-07-02T12:41:16;18.80;99.90
23729;DHT22;12045;60.214;24.724;2023-07-02T12:43:44;18.90;99.90
23729;DHT22;12045;60.214;24.724;2023-07-02T12:46:14;18.90;99.90
23729;DHT22;12045;60.214;24.724;2023-07-02T12:48:43;19.20;99.90
23729;DHT22;12045;60.214;24.724;2023-07-02T12:51:11;19.40;99.90
23729;DHT22;12045;60.214;24.724;2023-07-02T12:53:40;19.40;99.90
23729;DHT22;12045;60.214;24.724;2023-07-02T12:56:07;19.40;99.90
23729;DHT22;12045;60.214;24.724;2023-07-02T12:58:35;19.30;99.90
23729;DHT22;12045;60.214;24.724;2023-07-02T13:01:02;19.10;99.90
23729;DHT22;12045;60.214;24.724;2023-07-02T13:03:31;19.00;99.90
23729;DHT22;12045;60.214;24.724;2023-07-02T13:05:59;18.90;99.90
23729;DHT22;12045;60.214;24.724;2023-07-02T13:08:27;18.80;99.90
23729;DHT22;12045;60.214;24.724;2023-07-02T13:10:54;18.80;99.90
23729;DHT22;12045;60.214;24.724;2023-07-02T13:13:23;18.70;99.90
23729;DHT22;12045;60.214;24.724;2023-07-02T13:15:54;18.60;99.90
23729;DHT22;12045;60.214;24.724;2023-07-02T13:18:23;18.90;99.90
23729;DHT22;12045;60.214;24.724;2023-07-02T13:20:51;19.00;99.90
23729;DHT22;12045;60.214;24.724;2023-07-02T13:23:18;19.10;99.90
23729;DHT22;12045;60.214;24.724;2023-07-02T13:25:46;19.20;99.90
23729;DHT22;12045;60.214;24.724;2023-07-02T13:28:14;19.10;99.90
23729;DHT22;12045;60.214;24.724;2023-07-02T13:30:42;19.30;99.90
23729;DHT22;12045;60.214;24.724;2023-07-02T13:33:09;19.40;99.90
23729;DHT22;12045;60.214;24.724;2023-07-02T13:35:37;19.60;99.90
23729;DHT22;12045;60.214;24.724;2023-07-02T13:38:05;19.80;99.90
23729;DHT22;12045;60.214;24.724;2023-07-02T13:40:33;19.70;99.90
23729;DHT22;12045;60.214;24.724;2023-07-02T13:43:00;19.60;99.90
23729;DHT22;12045;60.214;24.724;2023-07-02T13:45:28;19.60;99.90
23729;DHT22;12045;60.214;24.724;2023-07-02T13:47:57;19.50;99.90
23729;DHT22;12045;60.214;24.724;2023-07-02T13:50:25;19.50;99.90
23729;DHT22;12045;60.214;24.724;2023-07-02T13:52:52;19.40;99.90
23729;DHT22;12045;60.214;24.724;2023-07-02T13:55:20;19.20;99.90
23729;DHT22;12045;60.214;24.724;2023-07-02T13:57:54;19.10;99.90
23729;DHT22;12045;60.214;24.724;2023-07-02T14:00:24;19.00;99.90
23729;DHT22;12045;60.214;24.724;2023-07-02T14:02:52;19.00;99.90
23729;DHT22;12045;60.214;24.724;2023-07-02T14:05:22;19.00;99.90
23729;DHT22;12045;60.214;24.724;2023-07-02T14:07:49;19.00;99.90
23729;DHT22;12045;60.214;24.724;2023-07-02T14:10:20;19.00;99.90
23729;DHT22;12045;60.214;24.724;2023-07-02T14:12:48;19.10;99.90
23729;DHT22;12045;60.214;24.724;2023-07-02T14:15:16;18.90;99.90
23729;DHT22;12045;60.214;24.724;2023-07-02T14:17:43;18.80;99.90
23729;DHT22;12045;60.214;24.724;2023-07-02T14:20:11;18.80;99.90
23729;DHT22;12045;60.214;24.724;2023-07-02T14:22:39;18.70;99.90
23729;DHT22;12045;60.214;24.724;2023-07-02T14:25:07;18.60;99.90
23729;DHT22;12045;60.214;24.724;2023-07-02T14:27:35;18.70;99.90
23729;DHT22;12045;60.214;24.724;2023-07-02T14:30:03;18.70;99.90
23729;DHT22;12045;60.214;24.724;2023-07-02T14:32:35;18.80;99.90
23729;DHT22;12045;60.214;24.724;2023-07-02T14:35:03;18.90;99.90
23729;DHT22;12045;60.214;24.724;2023-07-02T14:37:30;19.20;99.90
23729;DHT22;12045;60.214;24.724;2023-07-02T14:39:59;19.40;99.90
23729;DHT22;12045;60.214;24.724;2023-07-02T14:42:33;19.70;99.90
23729;DHT22;12045;60.214;24.724;2023-07-02T14:45:02;19.80;99.90
23729;DHT22;12045;60.214;24.724;2023-07-02T14:47:29;19.90;99.90
23729;DHT22;12045;60.214;24.724;2023-07-02T14:49:57;20.10;99.90
23729;DHT22;12045;60.214;24.724;2023-07-02T14:52:24;20.30;99.90
23729;DHT22;12045;60.214;24.724;2023-07-02T14:54:54;20.50;99.90
23729;DHT22;12045;60.214;24.724;2023-07-02T14:57:21;20.70;99.90
23729;DHT22;12045;60.214;24.724;2023-07-02T14:59:49;20.80;99.90
23729;DHT22;12045;60.214;24.724;2023-07-02T15:02:18;20.90;99.90
23729;DHT22;12045;60.214;24.724;2023-07-02T15:04:46;20.80;99.90
23729;DHT22;12045;60.214;24.724;2023-07-02T15:07:14;20.80;99.90
23729;DHT22;12045;60.214;24.724;2023-07-02T15:09:43;20.70;99.90
23729;DHT22;12045;60.214;24.724;2023-07-02T15:12:11;20.60;99.90
23729;DHT22;12045;60.214;24.724;2023-07-02T15:14:38;20.50;99.90
23729;DHT22;12045;60.214;24.724;2023-07-02T15:17:06;20.50;99.90
23729;DHT22;12045;60.214;24.724;2023-07-02T15:19:34;20.50;99.90
23729;DHT22;12045;60.214;24.724;2023-07-02T15:22:02;20.50;99.90
23729;DHT22;12045;60.214;24.724;2023-07-02T15:24:30;20.50;99.90
23729;DHT22;12045;60.214;24.724;2023-07-02T15:26:58;20.30;99.90
23729;DHT22;12045;60.214;24.724;2023-07-02T15:29:26;20.20;99.90